x

West Tampa - 112 Nm Wnw Of Tampa, Fl (42036) Wave Buoy

8:50am - Thu 5th Mar 2015 All times are EST. -5 hours from GMT.

  • Sig Wave height 3.3ft
  • Swell Direction
  • Peak Period 7s
  • Average Period 5s
  • Wind
    11mph
  • Sea Temp 68°f
  • Air Temp 71°f
  • Sea Pressure 1018.3mb
  • West Tampa  - 112 Nm Wnw Of Tampa, Fl
  • West Tampa  - 112 Nm Wnw Of Tampa, Fl

More Historic Weather Station data

Upgrade to MSW Pro to gain access to the past 30 days of data for over 8000 Wavebouys and Weather Stations around the globe.

Join Pro

Comparision Forecast

View Surf forecast
   
Thu 03/05 8:50am 3.5ft 7s 5s 11
mph
1018.3mb 68f 71f
7:50am 3.5ft 7s 5s 9
mph
1018.5mb 68f 71f
6:50am 3.5ft 6s 5s 9 11 mph 1017.8mb 68f 70f
5:50am 3.5ft 6s 5s 13
mph
1016.8mb 68f 70f
4:50am 3ft 6s 5s 9 11 mph 1016.2mb 68f 70f
3:50am 3ft 7s 5s 9 11 mph 1016.1mb 68f 70f
2:50am 3ft 7s 5s 9
mph
1016.5mb 68f 70f
1:50am 2.5ft 6s 5s 11 13 mph 1016.7mb 68f 70f
12:50am 3ft 7s 4s 13 16 mph 1016.9mb 68f 70f
Wed 03/04 11:50pm 2.5ft 6s 4s 13 16 mph 1017mb 68f 70f
10:50pm 2.5ft 6s 4s 9 11 mph 1017.8mb 68f 70f
9:50pm 2.5ft 6s 4s 11 13 mph 1017.7mb 69f 70f
8:50pm 2ft 6s 4s 11 13 mph 1017.4mb 69f 70f
7:50pm 2ft 6s 4s 9 11 mph 1017.2mb 69f 70f
6:50pm 2.5ft 6s 4s 9 11 mph 1017.2mb 69f 70f
5:50pm 2.5ft 6s 5s 9
mph
1017.3mb 69f 70f
4:50pm 2.5ft 6s 4s 7 9 mph 1017.5mb 69f 71f
3:50pm 2ft 6s 4s 7 11 mph 1017.8mb 69f 71f
2:50pm 2ft 6s 4s 9 11 mph 1018mb 69f 70f
1:50pm 1.6ft 6s 4s 11
mph
1018.7mb 69f 70f
12:50pm 1.6ft 5s 4s 9
mph
1019.7mb 69f 70f
11:50am 1.6ft 6s 4s 11 13 mph 1020.3mb 68f 70f
10:50am 1.3ft 6s 4s 11 13 mph 1020.2mb 68f 70f
9:50am 1.3ft 5s 4s 9
mph
1020.5mb 68f 69f
8:50am 1.3ft 8s 4s 11 13 mph 1020.1mb 68f 70f
7:50am 1.3ft 7s 4s 9
mph
1019.8mb 67f 69f
6:50am 1.3ft 6s 4s 7 9 mph 1019.4mb 68f 68f
5:50am 1.3ft 3s 3s 9 11 mph 1018.9mb 68f 68f
4:50am 1.3ft 3s 4s 11 13 mph 1018.4mb 68f 68f
3:50am 1.3ft 8s 4s 11
mph
1018.3mb 68f 68f
2:50am 1ft 3s 3s 11 13 mph 1018.5mb 68f 68f
1:50am 1ft 8s 4s 13 16 mph 1019.1mb 68f 68f
12:50am 1ft 9s 4s 9 11 mph 1019.7mb 68f 68f
Tue 03/03 11:50pm 1ft 7s 4s 9
mph
1020mb 68f 68f
10:50pm 1ft 9s 4s 2
mph
1020.1mb 68f 68f
9:50pm 1ft 8s 4s 2
mph
1020.2mb 68f 68f
8:50pm 1ft 3s 4s 4
mph
1020.1mb 68f 67f
7:50pm 1ft 6s 4s 2 4 mph 1019.9mb 67f 67f
6:50pm 1ft 7s 4s 2 4 mph 1020mb 67f 68f
5:50pm 1ft 7s 4s 4
mph
1019.8mb 67f 69f
4:50pm 1ft 8s 3s 9 11 mph 1019.8mb 67f 69f
3:50pm 1ft 7s 3s 9
mph
1020.1mb 68f 68f
2:50pm 1ft 8s 3s 9 11 mph 1020.5mb 67f 68f
1:50pm 1ft 8s 4s 11 13 mph 1021.3mb 67f 67f
12:50pm 1ft 2s 3s 11
mph
1022.2mb 67f 66f
11:50am 1ft 8s 4s 9 11 mph 1022.8mb 67f 64f
10:50am 1ft 6s 3s 11 13 mph 1023.1mb 67f 64f
9:50am 1ft 8s 4s 11
mph
1023.2mb 67f 64f
8:50am 1ft 7s 4s 9 11 mph 1023mb 67f 63f
7:50am 1ft 7s 4s 9 11 mph 1022.7mb 67f 64f
6:50am 1ft 6s 4s 9 11 mph 1022.2mb 67f 64f
5:50am 1ft 7s 4s 11 13 mph 1022mb 67f 62f
4:50am 1ft 7s 5s 11 13 mph 1021.8mb 67f 62f
3:50am 1ft 7s 5s 9 11 mph 1021.8mb 67f 63f
2:50am 1ft 7s 5s 7 9 mph 1022.1mb 67f 63f
1:50am 1ft 7s 5s 7 9 mph 1022.9mb 67f 63f
12:50am 1ft 8s 6s 7 9 mph 1023.4mb 67f 63f
Mon 03/02 11:50pm 0.7ft  -  5s 7 9 mph 1024.1mb 67f 63f
10:50pm 0.7ft  -  5s 4 7 mph 1024.2mb 67f 63f
9:50pm 0.7ft  -  5s 4 7 mph 1024.3mb 67f 64f
8:50pm 0.7ft  -  5s 4 7 mph 1024.3mb 67f 64f
7:50pm 1ft 6s 5s 2 4 mph 1024mb 67f 64f
6:50pm 1ft 7s 5s 4
mph
1023.7mb 67f 65f
5:50pm 1ft 6s 4s 4 7 mph 1023.6mb 67f 65f
4:50pm 1ft 8s 4s  -  2 mph 1023.6mb 67f 65f
3:50pm 1ft 6s 4s 7 9 mph 1023.2mb 67f 65f
2:50pm 1ft 7s 4s 7 9 mph 1023.6mb 67f 65f
1:50pm 1ft 7s 4s 7 9 mph 1024.6mb 67f 65f
12:50pm 1ft 7s 4s 7 9 mph 1025.6mb 67f 64f
11:50am 1.3ft 6s 4s 7 9 mph 1026.3mb 67f 64f
10:50am 1.3ft 4s 4s 7 9 mph 1026.4mb 66f 64f
9:50am 1.3ft 4s 4s 9
mph
1026.4mb 66f 63f
8:50am 1.3ft 4s 4s 7 9 mph 1026mb 66f 63f
7:50am 1.3ft 4s 4s 9 11 mph 1025.7mb 66f 63f
6:50am 1.6ft 4s 4s 9 11 mph 1025.6mb 66f 64f
5:50am 1.6ft 4s 3s 11
mph
1025.3mb 66f 64f
4:50am 1.6ft 4s 3s 11 13 mph 1025.4mb 66f 64f
3:50am 1.6ft 4s 3s 11 13 mph 1025.6mb 66f 65f
2:50am 1.6ft 3s 3s 13
mph
1025.9mb 66f 65f
1:50am 1.3ft 3s 3s 11 13 mph 1026.4mb 66f 65f
12:50am 1.3ft 4s 3s 11 13 mph 1026.6mb 66f 65f
Sun 03/01 11:50pm 1.3ft 4s 4s 11
mph
1027.1mb 66f 64f
10:50pm 1.3ft 4s 4s 11
mph
1027.1mb 66f 64f
9:50pm 1.3ft 4s 4s 9
mph
1027.2mb 66f 64f
8:50pm 1.6ft 4s 4s 9
mph
1026.7mb 66f 64f
7:50pm 1.6ft 5s 4s 9 11 mph 1026.2mb 66f 64f
6:50pm 2ft 5s 4s 9
mph
1025.8mb 66f 64f
5:50pm 2.5ft 4s 4s 4 7 mph 1025.4mb 66f 64f
4:50pm 2.5ft 5s 4s 7 9 mph 1025mb 66f 64f
3:50pm 2.5ft 5s 4s 11 13 mph 1025.1mb 66f 64f